Aviation Digital Data Service (ADDS)

Output produced by METARs form (1556 UTC 23 August 2017)
found at http://aviationweather.gov/adds/metars/
 
KVQQ 231127Z 2312/2412 26005KT P6SM SCT020 SCT250 
     FM232100 10008KT P6SM VCTS SCT045CB SCT120 BKN250 
     FM240200 00000KT P6SM SCT100 BKN250